Main page
METAR-TAF:

METAR-TAF

Airports :

Cuatro Vientos Airport

Madrid-Cuatro Vientos, Spain

latitude: 40-23N, longitude: 003-47W, elevation: 690 m

Current weather observation

The report was made 24 minutes ago, at 06:00 UTC
Calm wind
Temperature 14°C
Humidity 44%
Pressure 1026 hPa
Visibility 10 km or more
Scattered clouds at a height of 1800 ft
Broken clouds at a height of 3000 ft

METAR: LEVS 230600Z 00000KT 9999 SCT018 BKN030 14/02 Q1026

Time: 08:24 (06:24 UTC)

Forecast

The report was made 1 hour and 24 minutes ago, at 05:00 UTC
Forecast valid from 23 at 06 UTC to 23 at 15 UTC
Wind 7 kt from the Northeast
Visibility 10 km or more
Scattered clouds at a height of 1800 ft

TAF: LEVS 230500Z 2306/2315 05007KT 9999 SCT018

Weather observations and forecasts of more than 4000 airports (METAR and TAF reports).

The available stations are represented by yellow and red dots on the map.

Hover mouse over dot to see the name of the station.

Then click to see weather observations and forecasts.

To change the map : click on the green buttons with a black cross to zoom in, on the green button with a dash to zoom out, or on the green arrows for adjacent maps.


METAR-TAF: